Time;durP1;ratioP1;P1;durP2;ratioP2;P2;SDS_P1;SDS_P2;PMS_P1;PMS_P2;Temp;Humidity;BMP_temperature;BMP_pressure;BME280_temperature;BME280_humidity;BME280_pressure;Samples;Min_cycle;Max_cycle;Signal;HPM_P1;HPM_P2
2022/07/18 00:00:20;;;;;;;8.93;5.55;;;;;;;24.72;55.47;99599.34;5081116;28;21070;-88
2022/07/18 00:02:46;;;;;;;5.60;5.10;;;;;;;24.85;55.22;99598.78;5059819;28;20031;-88
2022/07/18 00:05:11;;;;;;;11.70;5.63;;;;;;;24.86;55.31;99597.72;5077400;28;20051;-90
2022/07/18 00:07:37;;;;;;;7.72;4.88;;;;;;;24.76;55.82;99603.13;5080563;28;20382;-88
2022/07/18 00:10:04;;;;;;;6.00;5.05;;;;;;;24.85;55.34;99606.84;5079696;28;20032;-89
2022/07/18 00:12:29;;;;;;;5.20;4.50;;;;;;;24.84;55.73;99594.50;5079039;28;20486;-89
2022/07/18 00:14:58;;;;;;;6.22;5.32;;;;;;;24.44;56.49;99596.25;5078120;28;20391;-90
2022/07/18 00:17:24;;;;;;;5.45;5.00;;;;;;;24.55;56.36;99576.34;5079402;28;20111;-89
2022/07/18 00:19:50;;;;;;;7.35;5.43;;;;;;;24.61;56.57;99591.34;5080968;28;20120;-89
2022/07/18 00:22:15;;;;;;;5.40;4.90;;;;;;;24.65;56.39;99581.66;5097117;28;20062;-87
2022/07/18 00:24:41;;;;;;;6.75;5.45;;;;;;;24.63;56.70;99583.00;5082335;28;20032;-90
2022/07/18 00:27:07;;;;;;;6.93;5.30;;;;;;;24.71;56.64;99582.47;5101397;28;20054;-90
2022/07/18 00:29:37;;;;;;;7.40;5.60;;;;;;;24.65;56.60;99581.66;5087622;28;20059;-90
2022/07/18 00:32:05;;;;;;;7.65;5.47;;;;;;;24.78;56.68;99582.19;5065844;28;20048;-91
2022/07/18 00:34:31;;;;;;;6.68;5.28;;;;;;;24.58;57.04;99583.03;5066928;28;20040;-89
2022/07/18 00:36:57;;;;;;;7.47;5.55;;;;;;;24.55;56.88;99589.75;5080983;28;20036;-90
2022/07/18 00:39:23;;;;;;;13.60;5.45;;;;;;;24.56;56.98;99588.66;5082727;28;20040;-90
2022/07/18 00:41:50;;;;;;;5.82;5.22;;;;;;;24.54;56.98;99585.47;5081682;28;20533;-90
2022/07/18 00:44:21;;;;;;;5.63;5.10;;;;;;;24.66;56.79;99583.28;5082808;28;20033;-89
2022/07/18 00:46:50;;;;;;;6.18;4.93;;;;;;;24.68;56.76;99577.66;5081794;28;20024;-90
2022/07/18 00:49:16;;;;;;;5.90;5.20;;;;;;;24.48;56.84;99581.19;5079247;28;20111;-90
2022/07/18 00:51:41;;;;;;;7.13;5.20;;;;;;;24.32;57.34;99586.63;5065717;28;20109;-90
2022/07/18 00:54:07;;;;;;;6.25;5.65;;;;;;;24.45;57.12;99581.75;5065081;28;20111;-89
2022/07/18 00:56:33;;;;;;;7.75;5.55;;;;;;;24.38;57.54;99580.19;5079845;28;20028;-89
2022/07/18 00:58:58;;;;;;;8.00;5.28;;;;;;;24.49;57.31;99589.00;5080058;28;20115;-88
2022/07/18 01:01:42;;;;;;;11.07;5.25;;;;;;;24.42;57.77;99582.31;5082978;28;20547;-91
2022/07/18 01:04:09;;;;;;;;;;;;;;;24.30;57.89;99587.97;5081511;28;20032;-89
2022/07/18 01:06:34;;;;;;;5.95;5.10;;;;;;;24.31;58.05;99585.00;5081139;28;20385;-90
2022/07/18 01:09:00;;;;;;;7.97;5.03;;;;;;;24.37;57.90;99577.75;5082836;28;20036;-91
2022/07/18 01:11:26;;;;;;;6.47;5.50;;;;;;;24.24;58.61;99587.97;5066025;28;20035;-91
2022/07/18 01:13:52;;;;;;;5.75;5.25;;;;;;;24.19;58.27;99579.16;5082560;28;20037;-88
2022/07/18 01:16:18;;;;;;;6.35;5.40;;;;;;;24.30;57.99;99575.34;5064805;28;20459;-89
2022/07/18 01:18:46;;;;;;;6.10;5.60;;;;;;;23.98;58.58;99579.16;5050093;28;20123;-89
2022/07/18 01:21:11;;;;;;;6.18;5.28;;;;;;;24.26;58.44;99582.34;5065199;28;20047;-89
2022/07/18 01:23:37;;;;;;;7.00;5.75;;;;;;;24.25;58.26;99575.38;5082485;28;20032;-91
2022/07/18 01:26:03;;;;;;;7.50;5.50;;;;;;;24.12;58.72;99584.81;5079814;28;20033;-90
2022/07/18 01:28:28;;;;;;;6.65;5.32;;;;;;;24.19;58.54;99568.44;5082581;28;20052;-89
2022/07/18 01:30:54;;;;;;;11.07;5.68;;;;;;;24.21;58.41;99577.00;5083723;28;20442;-90
2022/07/18 01:33:19;;;;;;;5.60;5.05;;;;;;;24.15;58.69;99572.72;5081422;28;20090;-90
2022/07/18 01:35:46;;;;;;;9.43;5.68;;;;;;;24.04;58.61;99572.75;5080821;28;20037;-90
2022/07/18 01:38:12;;;;;;;12.38;5.97;;;;;;;24.08;58.58;99563.06;5079777;28;20649;-88
2022/07/18 01:40:38;;;;;;;6.53;5.68;;;;;;;24.16;58.46;99566.25;5075180;28;20513;-89
2022/07/18 01:43:04;;;;;;;8.07;5.70;;;;;;;24.06;58.37;99554.50;5076440;28;20024;-87
2022/07/18 01:45:29;;;;;;;7.38;6.22;;;;;;;24.21;58.42;99560.91;5081081;28;20021;-89
2022/07/18 01:47:55;;;;;;;6.88;5.65;;;;;;;24.11;58.46;99556.38;5082168;28;20058;-88
2022/07/18 01:50:21;;;;;;;8.77;6.00;;;;;;;24.02;58.31;99553.44;5077519;28;20032;-90
2022/07/18 01:52:47;;;;;;;7.53;5.90;;;;;;;24.16;58.37;99550.19;5082378;28;20033;-89
2022/07/18 01:55:13;;;;;;;7.90;6.22;;;;;;;23.98;58.44;99555.03;5080656;28;20040;-89
2022/07/18 01:57:38;;;;;;;8.75;5.88;;;;;;;24.13;58.20;99540.00;5076448;28;20040;-88
2022/07/18 02:00:08;;;;;;;7.05;6.35;;;;;;;23.78;58.77;99540.59;5076707;28;20119;-87
2022/07/18 02:02:34;;;;;;;6.65;5.97;;;;;;;23.96;58.48;99539.22;5077846;28;20024;-88
2022/07/18 02:04:59;;;;;;;6.95;6.25;;;;;;;24.01;58.16;99546.44;5080863;28;20040;-89
2022/07/18 02:07:32;;;;;;;6.80;6.15;;;;;;;23.90;58.42;99537.63;5082590;28;20024;-89
2022/07/18 02:09:58;;;;;;;7.00;6.30;;;;;;;24.02;58.33;99540.03;5082385;28;20036;-90
2022/07/18 02:12:24;;;;;;;11.63;6.80;;;;;;;23.88;57.87;99537.09;5060314;28;20088;-88
2022/07/18 02:14:50;;;;;;;13.38;6.13;;;;;;;23.94;58.18;99535.19;5082788;28;20435;-86
2022/07/18 02:17:15;;;;;;;8.82;6.15;;;;;;;23.87;57.81;99538.13;5080100;28;20111;-89
2022/07/18 02:19:41;;;;;;;8.07;6.60;;;;;;;23.74;57.09;99528.78;5080160;28;20540;-90
2022/07/18 02:22:07;;;;;;;10.60;7.32;;;;;;;23.91;56.80;99533.88;5067656;28;20037;-89
2022/07/18 02:24:33;;;;;;;9.52;7.43;;;;;;;23.74;56.37;99526.09;5083506;28;20039;-89
2022/07/18 02:27:00;;;;;;;8.25;7.15;;;;;;;23.93;55.76;99523.69;5085134;28;20056;-90
2022/07/18 02:29:25;;;;;;;10.25;7.00;;;;;;;23.71;55.26;99510.56;5086069;28;20529;-89
2022/07/18 02:31:51;;;;;;;8.80;7.60;;;;;;;23.67;55.03;99520.22;5067950;28;20052;-89
2022/07/18 02:34:16;;;;;;;7.78;7.00;;;;;;;23.78;54.12;99521.84;5061463;28;20047;-89
2022/07/18 02:36:42;;;;;;;7.72;7.00;;;;;;;23.89;53.90;99516.44;5067111;28;20044;-89
2022/07/18 02:39:09;;;;;;;14.85;7.65;;;;;;;23.74;53.24;99506.56;5087000;28;20029;-90
2022/07/18 02:41:35;;;;;;;8.70;7.43;;;;;;;23.53;53.12;99502.00;5116983;28;20028;-90
2022/07/18 02:44:02;;;;;;;9.38;7.80;;;;;;;23.74;52.92;99504.66;5063421;28;20102;-91
2022/07/18 02:46:28;;;;;;;9.15;7.75;;;;;;;23.70;52.47;99505.50;5061959;28;20024;-89
2022/07/18 02:48:54;;;;;;;8.60;7.10;;;;;;;23.71;51.66;99507.88;5059195;28;20089;-90
2022/07/18 02:51:20;;;;;;;11.30;7.70;;;;;;;23.65;51.71;99503.63;5075453;28;20083;-89
2022/07/18 02:53:46;;;;;;;10.02;7.65;;;;;;;23.42;51.19;99495.06;5077323;28;20493;-89
2022/07/18 02:56:12;;;;;;;8.60;7.70;;;;;;;23.73;50.67;99499.59;5078848;28;20126;-88
2022/07/18 02:58:37;;;;;;;10.35;7.88;;;;;;;23.59;51.17;99496.66;5073791;28;20024;-88
2022/07/18 03:01:03;;;;;;;10.23;7.68;;;;;;;23.60;50.71;99492.91;5075892;28;20036;-88
2022/07/18 03:03:29;;;;;;;8.50;7.40;;;;;;;23.42;51.02;99496.94;5074799;28;20020;-88
2022/07/18 03:05:55;;;;;;;11.80;7.97;;;;;;;23.20;51.86;99493.44;5075930;28;20039;-88
2022/07/18 03:08:21;;;;;;;8.77;7.40;;;;;;;23.52;50.96;99489.69;5078747;28;20024;-90
2022/07/18 03:10:46;;;;;;;8.55;7.25;;;;;;;23.51;49.09;99485.41;5065649;28;20068;-91
2022/07/18 03:13:12;;;;;;;8.75;7.50;;;;;;;23.27;48.88;99497.75;5081136;28;20565;-89
2022/07/18 03:15:39;;;;;;;9.25;7.10;;;;;;;23.53;48.88;99499.34;5079059;28;20035;-87
2022/07/18 03:18:04;;;;;;;9.50;7.85;;;;;;;23.33;49.09;99488.63;5079398;28;20044;-89
2022/07/18 03:20:31;;;;;;;9.18;7.63;;;;;;;23.23;49.44;99484.88;5088924;28;20028;-90
2022/07/18 03:22:57;;;;;;;9.50;7.80;;;;;;;23.34;48.67;99490.25;5088338;28;20017;-89
2022/07/18 03:25:23;;;;;;;8.40;7.47;;;;;;;23.13;48.98;99490.22;5086867;28;20059;-88
2022/07/18 03:27:49;;;;;;;8.18;7.20;;;;;;;23.11;48.13;99481.63;5088112;28;20055;-90
2022/07/18 03:30:14;;;;;;;8.63;7.68;;;;;;;23.37;48.36;99478.97;5086679;28;20043;-89
2022/07/18 03:32:40;;;;;;;8.60;7.68;;;;;;;23.19;48.32;99472.28;5070480;28;20052;-89
2022/07/18 03:35:06;;;;;;;9.27;7.40;;;;;;;23.28;48.61;99469.91;5068000;28;20028;-89
2022/07/18 03:37:32;;;;;;;7.30;6.60;;;;;;;23.19;47.59;99459.69;5060587;28;20155;-90
2022/07/18 03:39:58;;;;;;;7.75;6.57;;;;;;;23.22;47.20;99461.84;5080341;28;20072;-89
2022/07/18 03:42:23;;;;;;;9.35;6.85;;;;;;;23.29;47.44;99471.50;5082624;28;20032;-88
2022/07/18 03:44:49;;;;;;;11.18;7.70;;;;;;;22.91;47.53;99459.13;5077486;28;20040;-86
2022/07/18 03:47:14;;;;;;;9.82;7.20;;;;;;;22.98;47.76;99461.56;5061804;28;20451;-90
2022/07/18 03:49:40;;;;;;;8.60;7.20;;;;;;;23.08;47.45;99463.44;5079051;28;20044;-89
2022/07/18 03:52:06;;;;;;;8.88;6.90;;;;;;;23.01;47.51;99457.56;5078882;28;20025;-88
2022/07/18 03:54:32;;;;;;;8.75;7.22;;;;;;;22.94;47.64;99465.84;5081764;28;20115;-87
2022/07/18 03:56:59;;;;;;;10.75;7.50;;;;;;;23.01;47.21;99465.59;5080314;28;20029;-89
2022/07/18 03:59:24;;;;;;;9.73;7.10;;;;;;;23.27;46.63;99465.63;5078317;28;20025;-88
2022/07/18 04:01:50;;;;;;;10.25;6.70;;;;;;;23.11;46.62;99461.03;5076404;28;20035;-87
2022/07/18 04:04:16;;;;;;;9.82;7.47;;;;;;;23.18;46.79;99468.78;5060602;28;20489;-87
2022/07/18 04:06:42;;;;;;;8.65;6.65;;;;;;;23.24;46.26;99462.38;5077462;28;20032;-88
2022/07/18 04:09:08;;;;;;;9.00;6.90;;;;;;;23.06;46.85;99457.56;5060976;28;20024;-89
2022/07/18 04:11:33;;;;;;;9.45;7.05;;;;;;;23.19;45.97;99457.03;5079744;28;20047;-88
2022/07/18 04:14:07;;;;;;;8.60;6.60;;;;;;;23.17;45.94;99456.47;5113355;28;20082;-88
2022/07/18 04:16:35;;;;;;;7.40;6.43;;;;;;;22.96;46.10;99463.69;5078979;28;20094;-89
2022/07/18 04:19:01;;;;;;;8.23;6.43;;;;;;;23.15;45.39;99450.56;5080131;28;20057;-88
2022/07/18 04:21:28;;;;;;;9.75;6.43;;;;;;;23.13;46.04;99458.06;5064943;28;20040;-90
2022/07/18 04:23:54;;;;;;;7.55;6.75;;;;;;;23.07;45.82;99454.59;5077486;28;20040;-89
2022/07/18 04:26:20;;;;;;;7.47;6.55;;;;;;;23.12;45.79;99456.47;5080069;28;20146;-89
2022/07/18 04:28:46;;;;;;;8.23;5.97;;;;;;;23.31;44.93;99450.59;5077008;28;20056;-87
2022/07/18 04:31:11;;;;;;;7.72;6.65;;;;;;;23.30;45.25;99457.03;5059644;28;20035;-89
2022/07/18 04:33:37;;;;;;;9.77;6.93;;;;;;;23.20;45.31;99442.56;5078851;28;20078;-89
2022/07/18 04:36:03;;;;;;;9.68;6.97;;;;;;;23.24;45.37;99440.94;5079153;28;20025;-89
2022/07/18 04:38:33;;;;;;;6.63;6.03;;;;;;;23.40;44.82;99440.97;5082554;28;20029;-87
2022/07/18 04:40:59;;;;;;;7.10;6.40;;;;;;;23.34;45.06;99436.66;5075859;28;20060;-87
2022/07/18 04:43:25;;;;;;;7.68;6.13;;;;;;;23.51;44.17;99437.19;5080860;28;20029;-89
2022/07/18 04:45:51;;;;;;;7.20;6.47;;;;;;;23.43;44.46;99427.03;5081238;28;20050;-91
2022/07/18 04:48:16;;;;;;;7.90;6.28;;;;;;;23.54;45.10;99425.13;5081882;28;20028;-89
2022/07/18 04:50:42;;;;;;;8.68;6.63;;;;;;;23.60;44.39;99428.59;5067010;28;20052;-90
2022/07/18 04:53:08;;;;;;;8.52;6.45;;;;;;;23.59;44.74;99416.28;5082898;28;20025;-89
2022/07/18 04:55:33;;;;;;;7.47;6.53;;;;;;;23.48;45.09;99418.97;5079608;28;20071;-90
2022/07/18 04:57:59;;;;;;;7.68;6.88;;;;;;;23.37;44.75;99426.22;5083625;28;20047;-90
2022/07/18 05:00:26;;;;;;;7.95;6.85;;;;;;;23.67;44.15;99418.41;5082934;28;20386;-89
2022/07/18 05:02:54;;;;;;;6.82;6.13;;;;;;;23.61;43.24;99419.50;5081278;28;20128;-87
2022/07/18 05:05:21;;;;;;;8.15;6.40;;;;;;;23.77;43.29;99423.72;5077803;28;20077;-89
2022/07/18 05:07:49;;;;;;;7.25;5.88;;;;;;;23.91;43.75;99420.47;5101214;28;20081;-90
2022/07/18 05:10:18;;;;;;;7.22;6.50;;;;;;;23.69;42.69;99416.25;5067316;28;20039;-88
2022/07/18 05:12:45;;;;;;;8.45;6.72;;;;;;;23.70;42.70;99420.53;5088575;28;20044;-88
2022/07/18 05:15:14;;;;;;;6.68;6.07;;;;;;;23.95;43.48;99418.81;5089872;28;20020;-88
2022/07/18 05:17:40;;;;;;;7.78;6.20;;;;;;;23.98;42.27;99414.81;5093011;28;20159;-90
2022/07/18 05:20:08;;;;;;;6.95;5.53;;;;;;;24.15;42.60;99417.16;5073960;28;20029;-89
2022/07/18 05:22:34;;;;;;;7.43;6.55;;;;;;;24.02;42.08;99405.97;5093090;28;20036;-87
2022/07/18 05:25:02;;;;;;;7.78;6.57;;;;;;;24.19;41.99;99424.38;5094968;28;20082;-89
2022/07/18 05:27:27;;;;;;;6.82;5.55;;;;;;;24.32;41.14;99412.25;5094507;28;20032;-89
2022/07/18 05:29:53;;;;;;;8.20;6.38;;;;;;;24.14;41.08;99415.56;5095854;28;20071;-89
2022/07/18 05:32:19;;;;;;;8.25;6.47;;;;;;;24.47;40.57;99411.38;5078059;28;20032;-88
2022/07/18 05:34:44;;;;;;;7.65;6.43;;;;;;;24.63;41.68;99417.44;5079463;28;20088;-89
2022/07/18 05:37:10;;;;;;;9.88;5.93;;;;;;;24.75;40.93;99409.06;5108330;28;20076;-88
2022/07/18 05:39:36;;;;;;;7.75;6.07;;;;;;;24.80;41.35;99408.22;5078379;28;20062;-90
2022/07/18 05:42:03;;;;;;;6.22;5.63;;;;;;;24.98;42.06;99414.00;5094712;28;20048;-87
2022/07/18 05:44:29;;;;;;;8.23;6.00;;;;;;;25.11;43.19;99418.69;5094102;28;20051;-87
2022/07/18 05:46:55;;;;;;;6.95;6.22;;;;;;;25.19;43.59;99419.97;5095977;28;20092;-90
2022/07/18 05:49:21;;;;;;;7.00;6.15;;;;;;;25.34;43.57;99413.63;5068316;28;20104;-87
2022/07/18 05:51:46;;;;;;;6.72;6.10;;;;;;;25.38;45.08;99414.69;5063986;28;20052;-87
2022/07/18 05:54:15;;;;;;;7.75;6.40;;;;;;;25.42;45.64;99414.91;5079830;28;20382;-87
2022/07/18 05:56:41;;;;;;;7.53;6.57;;;;;;;25.56;45.62;99417.78;5078574;28;20486;-88
2022/07/18 05:59:07;;;;;;;8.68;6.40;;;;;;;25.63;45.25;99421.69;5083511;28;20085;-90
2022/07/18 06:01:32;;;;;;;11.88;6.07;;;;;;;25.70;44.93;99418.66;5081018;28;20031;-90
2022/07/18 06:03:58;;;;;;;8.02;6.20;;;;;;;25.80;45.77;99418.56;5086402;28;20090;-89
2022/07/18 06:06:24;;;;;;;6.78;5.78;;;;;;;25.95;45.25;99422.16;5087526;28;20060;-89
2022/07/18 06:08:49;;;;;;;8.27;6.45;;;;;;;26.04;47.58;99428.50;5082899;28;20028;-89
2022/07/18 06:11:15;;;;;;;7.60;6.20;;;;;;;26.14;47.04;99424.88;5083878;28;20043;-90
2022/07/18 06:13:44;;;;;;;8.68;6.35;;;;;;;26.21;45.77;99414.56;5080960;28;20389;-89
2022/07/18 06:16:10;;;;;;;11.38;6.80;;;;;;;26.33;44.45;99422.22;5097346;28;20029;-87
2022/07/18 06:18:35;;;;;;;7.78;6.35;;;;;;;26.59;44.74;99429.94;5083071;28;20093;-86
2022/07/18 06:21:04;;;;;;;6.95;6.35;;;;;;;26.75;44.72;99427.03;5076794;28;20487;-87
2022/07/18 06:23:30;;;;;;;7.95;6.30;;;;;;;26.89;43.78;99433.25;5075745;28;20033;-88
2022/07/18 06:25:57;;;;;;;7.60;6.78;;;;;;;27.09;44.24;99425.94;5083225;28;20542;-87
2022/07/18 06:28:23;;;;;;;6.75;6.05;;;;;;;27.27;44.76;99436.97;5079104;28;20024;-87
2022/07/18 06:30:48;;;;;;;7.15;6.45;;;;;;;27.37;43.79;99426.78;5079613;28;20110;-86
2022/07/18 06:33:14;;;;;;;6.97;6.07;;;;;;;27.52;43.47;99422.25;5075181;28;20052;-88
2022/07/18 06:35:40;;;;;;;7.18;6.47;;;;;;;27.71;43.56;99430.25;5055501;28;20040;-84
2022/07/18 06:38:06;;;;;;;7.40;6.60;;;;;;;27.86;42.16;99428.34;5073232;28;20442;-85
2022/07/18 06:40:32;;;;;;;7.07;6.38;;;;;;;27.97;42.27;99427.03;5075597;28;20028;-87
2022/07/18 06:42:57;;;;;;;7.22;6.30;;;;;;;28.06;42.51;99419.03;5074943;28;20032;-86
2022/07/18 06:45:23;;;;;;;7.20;6.15;;;;;;;28.26;42.64;99428.59;5072792;28;20032;-85
2022/07/18 06:47:50;;;;;;;6.93;6.10;;;;;;;28.34;41.68;99427.91;5072103;28;20032;-85
2022/07/18 06:50:16;;;;;;;9.80;6.38;;;;;;;28.50;41.25;99430.25;5078602;28;20074;-85
2022/07/18 06:52:43;;;;;;;8.00;6.45;;;;;;;28.46;41.86;99426.56;5075780;28;20024;-84
2022/07/18 06:55:10;;;;;;;9.07;6.88;;;;;;;28.42;40.56;99420.16;5077984;28;20036;-83
2022/07/18 06:57:36;;;;;;;8.18;6.13;;;;;;;28.69;40.25;99426.56;5077159;28;20047;-86
2022/07/18 07:00:03;;;;;;;8.25;6.20;;;;;;;28.84;40.95;99431.63;5077921;28;20024;-85
2022/07/18 07:02:29;;;;;;;6.90;6.30;;;;;;;28.91;39.84;99425.81;5079362;28;20374;-83
2022/07/18 07:04:54;;;;;;;9.02;6.85;;;;;;;29.08;39.92;99425.09;5079826;28;20036;-83
2022/07/18 07:07:20;;;;;;;7.35;6.65;;;;;;;29.13;39.09;99432.28;5078474;28;20466;-85
2022/07/18 07:09:46;;;;;;;9.80;6.90;;;;;;;29.20;38.18;99428.03;5079287;28;20082;-85
2022/07/18 07:12:12;;;;;;;11.63;6.75;;;;;;;29.21;38.80;99418.81;5077028;28;20386;-87
2022/07/18 07:14:46;;;;;;;9.77;6.57;;;;;;;29.22;40.23;99416.94;5058731;28;20103;-84
2022/07/18 07:17:15;;;;;;;7.10;5.80;;;;;;;29.10;38.32;99419.41;5057559;28;20080;-84
2022/07/18 07:19:41;;;;;;;6.68;6.07;;;;;;;29.14;38.36;99420.38;5074866;28;20135;-84
2022/07/18 07:22:07;;;;;;;7.10;6.35;;;;;;;29.31;38.10;99422.38;5074188;28;20024;-85
2022/07/18 07:24:33;;;;;;;8.00;6.25;;;;;;;29.50;39.29;99416.75;5080305;28;20429;-88
2022/07/18 07:27:00;;;;;;;7.72;5.88;;;;;;;29.20;39.44;99422.63;5086793;28;20032;-88
2022/07/18 07:29:26;;;;;;;8.93;6.40;;;;;;;29.40;40.73;99420.50;5088973;28;20054;-89
2022/07/18 07:31:52;;;;;;;6.57;5.90;;;;;;;29.62;41.88;99422.38;5086429;28;20041;-85
2022/07/18 07:34:17;;;;;;;10.27;6.53;;;;;;;29.61;41.40;99419.97;5092882;28;20032;-88
2022/07/18 07:36:44;;;;;;;8.93;5.97;;;;;;;29.66;41.66;99417.09;5096271;28;20420;-88
2022/07/18 07:39:10;;;;;;;7.45;6.43;;;;;;;29.73;42.00;99422.88;5094662;28;20035;-88
2022/07/18 07:41:35;;;;;;;10.45;6.93;;;;;;;29.71;41.19;99425.09;5071628;28;20040;-87
2022/07/18 07:44:04;;;;;;;10.18;6.60;;;;;;;29.63;42.11;99428.56;5091489;28;20032;-89
2022/07/18 07:46:30;;;;;;;6.82;6.00;;;;;;;29.46;42.00;99419.25;5088022;28;20043;-89
2022/07/18 07:48:55;;;;;;;10.15;6.68;;;;;;;29.32;41.37;99430.16;5088628;28;20448;-89
2022/07/18 07:51:21;;;;;;;13.35;6.13;;;;;;;29.11;38.04;99418.28;5089499;28;20040;-89
2022/07/18 07:53:47;;;;;;;8.75;6.90;;;;;;;29.00;41.82;99417.75;5090955;28;20028;-89
2022/07/18 07:56:36;;;;;;;10.23;6.13;;;;;;;29.06;40.39;99419.19;5092364;28;20042;-89
2022/07/18 07:59:02;;;;;;;10.60;6.80;;;;;;;28.92;39.23;99422.81;5109367;28;20043;-88
2022/07/18 08:01:28;;;;;;;7.65;5.82;;;;;;;29.00;41.31;99415.84;5077828;28;20025;-89
2022/07/18 08:03:54;;;;;;;7.30;6.40;;;;;;;29.04;43.56;99413.31;5093127;28;20036;-88
2022/07/18 08:06:20;;;;;;;8.32;6.07;;;;;;;29.02;43.63;99413.63;5076436;28;20048;-88
2022/07/18 08:08:46;;;;;;;10.75;6.28;;;;;;;28.91;41.52;99415.00;5090103;28;20024;-89
2022/07/18 08:11:11;;;;;;;9.32;6.80;;;;;;;29.00;42.24;99415.03;5087458;28;20027;-89
2022/07/18 08:13:37;;;;;;;8.38;5.95;;;;;;;29.02;43.00;99420.94;5085354;28;20175;-87
2022/07/18 08:16:02;;;;;;;7.88;6.50;;;;;;;28.94;42.83;99422.47;5075413;28;20470;-86
2022/07/18 08:18:28;;;;;;;7.00;6.07;;;;;;;29.05;41.89;99426.53;5073537;28;20069;-88
2022/07/18 08:20:54;;;;;;;8.32;6.35;;;;;;;28.98;41.82;99428.06;5077977;28;20085;-88
2022/07/18 08:23:20;;;;;;;9.10;6.38;;;;;;;28.95;42.87;99417.88;5078937;28;20033;-88
2022/07/18 08:25:46;;;;;;;8.90;6.05;;;;;;;28.81;41.89;99416.03;5078965;28;20035;-87
2022/07/18 08:28:13;;;;;;;8.93;6.57;;;;;;;28.93;43.48;99416.28;5074398;28;20028;-87
2022/07/18 08:30:39;;;;;;;7.85;6.40;;;;;;;28.70;41.24;99414.69;5072406;28;20123;-86
2022/07/18 08:33:06;;;;;;;7.13;6.25;;;;;;;28.86;41.69;99409.72;5074452;28;20427;-88
2022/07/18 08:35:33;;;;;;;9.10;6.35;;;;;;;28.84;41.93;99410.03;5073095;28;20025;-88
2022/07/18 08:38:00;;;;;;;7.35;6.57;;;;;;;28.87;42.91;99414.03;5072696;28;20127;-88
2022/07/18 08:40:26;;;;;;;10.65;6.68;;;;;;;28.93;43.11;99407.38;5072344;28;20033;-86
2022/07/18 08:42:55;;;;;;;9.68;6.20;;;;;;;28.83;42.45;99403.03;5073371;28;20048;-86
2022/07/18 08:45:22;;;;;;;7.15;6.45;;;;;;;28.99;42.15;99416.16;5076219;28;20060;-87
2022/07/18 08:47:47;;;;;;;14.60;7.35;;;;;;;29.06;43.85;99408.41;5078532;28;20047;-87
2022/07/18 08:50:13;;;;;;;9.30;6.35;;;;;;;28.99;41.01;99399.94;5078682;28;20506;-85
2022/07/18 08:52:39;;;;;;;7.22;6.13;;;;;;;28.91;38.66;99415.81;5058005;28;20028;-86
2022/07/18 08:55:07;;;;;;;9.77;6.05;;;;;;;29.08;38.43;99408.88;5076983;28;20032;-85
2022/07/18 08:57:32;;;;;;;9.88;5.82;;;;;;;29.12;39.38;99409.88;5060320;28;20032;-86
2022/07/18 08:59:58;;;;;;;9.43;6.45;;;;;;;29.19;40.89;99409.44;5078256;28;20039;-87
2022/07/18 09:02:26;;;;;;;13.07;6.50;;;;;;;29.09;37.25;99399.69;5078464;28;20032;-87
2022/07/18 09:04:51;;;;;;;9.93;6.05;;;;;;;29.04;35.95;99410.63;5078932;28;20091;-84
2022/07/18 09:07:27;;;;;;;9.43;6.18;;;;;;;29.26;35.65;99411.66;5076243;28;20055;-85
2022/07/18 09:09:55;;;;;;;9.75;6.20;;;;;;;29.33;36.30;99409.34;5076071;28;20550;-87
2022/07/18 09:12:21;;;;;;;8.82;5.68;;;;;;;29.09;33.09;99402.41;5078632;28;20056;-86
2022/07/18 09:14:46;;;;;;;8.75;5.60;;;;;;;29.21;31.93;99397.19;5077913;28;20028;-86
2022/07/18 09:17:14;;;;;;;6.35;5.68;;;;;;;29.47;31.06;99401.16;5079138;28;20088;-86
2022/07/18 09:19:43;;;;;;;6.72;5.55;;;;;;;29.39;31.81;99402.69;5076908;28;20031;-86
2022/07/18 09:22:18;;;;;;;11.95;6.30;;;;;;;29.42;32.07;99402.06;5077515;28;20035;-85
2022/07/18 09:25:07;;;;;;;6.43;5.85;;;;;;;29.66;31.57;99406.28;5075858;28;20178;-86
2022/07/18 09:27:34;;;;;;;6.30;5.70;;;;;;;29.61;31.52;99403.72;5074724;28;20127;-86
2022/07/18 09:30:11;;;;;;;8.27;6.15;;;;;;;29.71;32.62;99403.47;5071602;28;20107;-85
2022/07/18 09:32:41;;;;;;;7.68;5.82;;;;;;;29.84;33.84;99396.31;5095508;28;20052;-87
2022/07/18 09:35:14;;;;;;;6.30;5.70;;;;;;;29.78;33.20;99392.19;5078658;28;20059;-86
2022/07/18 09:37:51;;;;;;;8.88;6.32;;;;;;;29.84;32.42;99398.22;5057531;28;20037;-87
2022/07/18 09:40:26;;;;;;;8.45;5.93;;;;;;;29.97;32.87;99393.78;5073165;28;20043;-85
2022/07/18 09:42:53;;;;;;;6.10;5.50;;;;;;;30.12;34.22;99390.66;5080673;28;20024;-85
2022/07/18 09:45:24;;;;;;;6.32;5.72;;;;;;;30.21;32.55;99398.78;5074458;28;20099;-87
2022/07/18 09:47:51;;;;;;;13.43;6.15;;;;;;;30.11;32.61;99399.09;5076893;28;20083;-86
2022/07/18 09:50:25;;;;;;;16.08;6.65;;;;;;;30.30;34.01;99386.06;5057156;28;20029;-86
2022/07/18 09:53:00;;;;;;;8.55;5.82;;;;;;;30.45;34.75;99387.47;5070874;28;20028;-86
2022/07/18 09:55:26;;;;;;;7.20;6.25;;;;;;;30.47;33.65;99393.38;5069376;28;20032;-87
2022/07/18 09:58:07;;;;;;;6.43;5.85;;;;;;;30.77;34.47;99390.00;5089053;28;20028;-87
2022/07/18 10:00:38;;;;;;;7.13;5.97;;;;;;;30.93;35.37;99398.41;5068476;28;20021;-87
2022/07/18 10:03:05;;;;;;;16.35;6.43;;;;;;;30.68;33.11;99389.25;5073735;28;20506;-87
2022/07/18 10:05:36;;;;;;;14.95;6.05;;;;;;;30.79;33.72;99395.91;5076697;28;20089;-86
2022/07/18 10:08:08;;;;;;;11.82;6.05;;;;;;;30.83;33.87;99385.22;5073298;28;20047;-87
2022/07/18 10:10:36;;;;;;;7.43;5.93;;;;;;;30.88;32.20;99377.72;5083087;28;20088;-86
2022/07/18 10:13:03;;;;;;;7.63;6.05;;;;;;;30.95;33.49;99389.97;5072233;28;20064;-86
2022/07/18 10:15:32;;;;;;;7.45;5.80;;;;;;;31.03;34.04;99391.84;5080650;28;20032;-86
2022/07/18 10:18:00;;;;;;;7.80;5.78;;;;;;;31.13;35.77;99391.50;5058213;28;20033;-85
2022/07/18 10:20:38;;;;;;;6.30;5.70;;;;;;;31.27;33.60;99385.91;5078459;28;20032;-85
2022/07/18 10:23:13;;;;;;;6.82;6.22;;;;;;;31.30;33.08;99387.16;5073793;28;20028;-86
2022/07/18 10:25:38;;;;;;;7.18;6.47;;;;;;;31.42;33.96;99386.47;5077014;28;20551;-86
2022/07/18 10:28:07;;;;;;;6.40;5.90;;;;;;;31.51;33.76;99378.28;5076865;28;20112;-85
2022/07/18 10:30:34;;;;;;;6.55;5.95;;;;;;;31.64;33.84;99374.53;5078440;28;20059;-85
2022/07/18 10:33:02;;;;;;;6.60;5.95;;;;;;;31.67;32.63;99379.31;5076626;28;20443;-85
2022/07/18 10:36:06;;;;;;;6.25;5.72;;;;;;;31.82;33.97;99379.88;5076947;28;20059;-86
2022/07/18 10:38:32;;;;;;;6.35;5.72;;;;;;;31.84;34.12;99383.88;5074914;28;20067;-86
2022/07/18 10:41:09;;;;;;;7.97;6.00;;;;;;;31.86;33.57;99376.19;5075283;28;20036;-85
2022/07/18 10:43:38;;;;;;;6.45;5.85;;;;;;;31.83;31.28;99378.75;5073872;28;20033;-85
2022/07/18 10:46:05;;;;;;;6.28;5.78;;;;;;;31.89;30.96;99388.31;5079560;28;21532;-86
2022/07/18 10:48:33;;;;;;;5.78;5.28;;;;;;;31.96;31.30;99377.72;5079069;28;20043;-84
2022/07/18 10:51:06;;;;;;;5.97;5.47;;;;;;;32.01;31.38;99374.78;5077412;28;20037;-85
2022/07/18 10:53:53;;;;;;;6.53;5.40;;;;;;;32.10;31.05;99373.94;5074706;28;20545;-86
2022/07/18 10:56:28;;;;;;;5.80;5.32;;;;;;;31.87;28.83;99383.19;5106348;28;20566;-86
2022/07/18 10:58:58;;;;;;;6.10;5.50;;;;;;;32.07;31.11;99380.06;5074881;28;20052;-85
2022/07/18 11:01:26;;;;;;;6.05;5.53;;;;;;;32.15;29.92;99373.75;5069568;28;20029;-85
2022/07/18 11:04:23;;;;;;;5.57;5.18;;;;;;;32.27;29.97;99373.81;5083796;28;20032;-86
2022/07/18 11:07:14;;;;;;;6.93;5.28;;;;;;;32.30;28.22;99365.00;5074258;28;20162;-86
2022/07/18 11:09:47;;;;;;;6.45;5.40;;;;;;;32.38;29.30;99374.22;5070319;28;20399;-86
2022/07/18 11:12:30;;;;;;;6.32;5.72;;;;;;;32.38;28.05;99367.97;5071453;28;20063;-88
2022/07/18 11:15:12;;;;;;;6.00;5.35;;;;;;;32.47;27.96;99366.00;5071624;28;20024;-87
2022/07/18 11:18:03;;;;;;;5.35;4.95;;;;;;;32.55;29.36;99367.81;5073512;28;20550;-87
2022/07/18 11:20:50;;;;;;;5.70;4.78;;;;;;;32.64;28.34;99375.09;5073189;28;20443;-89
2022/07/18 11:23:19;;;;;;;5.70;4.70;;;;;;;32.72;29.20;99371.50;5078734;28;20032;-88
2022/07/18 11:25:46;;;;;;;4.97;4.50;;;;;;;32.73;28.41;99356.78;5090055;28;20036;-88
2022/07/18 11:28:13;;;;;;;4.90;4.50;;;;;;;32.78;28.54;99363.94;5075293;28;20031;-88
2022/07/18 11:30:39;;;;;;;5.38;4.88;;;;;;;32.98;30.33;99367.72;5075156;28;20545;-87
2022/07/18 11:33:06;;;;;;;5.22;4.82;;;;;;;33.23;29.45;99359.59;5072897;28;20047;-87